Time;durP1;ratioP1;P1;durP2;ratioP2;P2;SDS_P1;SDS_P2;PMS_P1;PMS_P2;Temp;Humidity;BMP_temperature;BMP_pressure;BME280_temperature;BME280_humidity;BME280_pressure;Samples;Min_cycle;Max_cycle;Signal;HPM_P1;HPM_P2
2023/05/15 00:02:22;;;;;;;8.93;6.43;;;;;;;15.04;62.46;101407.28;7391795;19;20010;-49
2023/05/15 00:04:50;;;;;;;9.23;6.30;;;;;;;14.74;63.24;101405.28;7389636;19;20026;-49
2023/05/15 00:07:17;;;;;;;9.35;6.95;;;;;;;14.64;64.03;101402.50;7391650;19;20059;-48
2023/05/15 00:09:44;;;;;;;9.85;6.97;;;;;;;14.56;64.34;101408.44;7390900;19;20029;-50
2023/05/15 00:12:11;;;;;;;11.65;7.05;;;;;;;14.57;64.84;101403.97;7391796;19;20491;-51
2023/05/15 00:14:38;;;;;;;9.52;6.68;;;;;;;14.45;64.94;101394.25;7389884;19;20015;-48
2023/05/15 00:17:06;;;;;;;11.27;6.57;;;;;;;14.81;63.67;101391.34;7389659;19;20015;-50
2023/05/15 00:19:33;;;;;;;9.95;7.22;;;;;;;14.99;62.84;101383.63;7390536;19;20018;-48
2023/05/15 00:22:00;;;;;;;10.23;6.95;;;;;;;14.64;64.03;101389.16;7390594;19;20015;-51
2023/05/15 00:24:27;;;;;;;9.07;6.30;;;;;;;14.64;64.28;101386.50;7388426;19;20026;-50
2023/05/15 00:26:54;;;;;;;9.68;6.63;;;;;;;14.91;62.91;101385.22;7390729;19;20361;-48
2023/05/15 00:29:22;;;;;;;10.95;6.82;;;;;;;15.05;62.67;101380.47;7390296;19;20031;-47
2023/05/15 00:31:50;;;;;;;9.63;6.30;;;;;;;15.02;62.68;101386.03;7390757;19;20018;-48
2023/05/15 00:34:17;;;;;;;10.95;7.10;;;;;;;14.99;62.39;101382.78;7389878;19;20094;-49
2023/05/15 00:36:44;;;;;;;10.23;6.47;;;;;;;14.96;62.46;101381.22;7388629;19;20018;-52
2023/05/15 00:39:11;;;;;;;10.32;6.82;;;;;;;14.94;62.71;101390.31;7390396;19;20086;-51
2023/05/15 00:41:40;;;;;;;10.73;6.78;;;;;;;14.72;63.52;101381.41;7390691;19;20031;-50
2023/05/15 00:44:09;;;;;;;10.73;7.18;;;;;;;14.39;64.51;101375.13;7389406;19;20023;-51
2023/05/15 00:46:37;;;;;;;10.20;7.28;;;;;;;14.33;65.07;101369.44;7388160;19;20011;-49
2023/05/15 00:49:05;;;;;;;10.13;6.93;;;;;;;14.29;65.61;101368.81;7387984;19;20368;-49
2023/05/15 00:51:34;;;;;;;11.20;6.85;;;;;;;14.26;65.76;101376.22;7390124;19;20010;-51
2023/05/15 00:54:01;;;;;;;10.10;7.25;;;;;;;14.22;65.68;101370.28;7387988;19;20029;-51
2023/05/15 00:56:29;;;;;;;11.25;7.55;;;;;;;14.31;65.46;101376.72;7390747;19;20817;-52
2023/05/15 00:58:58;;;;;;;10.75;6.82;;;;;;;14.41;64.60;101376.81;7388938;19;20086;-52
2023/05/15 01:01:25;;;;;;;10.57;7.30;;;;;;;14.47;64.27;101371.84;7388851;19;20014;-46
2023/05/15 01:03:53;;;;;;;10.70;7.57;;;;;;;14.51;64.16;101368.00;7388913;19;20011;-48
2023/05/15 01:06:20;;;;;;;12.00;8.02;;;;;;;14.52;64.54;101363.50;7386545;19;20023;-48
2023/05/15 01:08:49;;;;;;;9.90;6.95;;;;;;;14.53;64.95;101365.19;7388082;19;20014;-47
2023/05/15 01:11:16;;;;;;;10.60;7.38;;;;;;;14.67;64.31;101359.59;7390168;19;20113;-46
2023/05/15 01:13:43;;;;;;;12.82;7.40;;;;;;;14.67;63.84;101359.59;7389127;19;20031;-47
2023/05/15 01:16:10;;;;;;;11.25;6.80;;;;;;;14.72;63.52;101359.22;7389232;19;20019;-46
2023/05/15 01:18:38;;;;;;;12.23;7.50;;;;;;;14.62;63.94;101354.66;7387136;19;20078;-46
2023/05/15 01:21:05;;;;;;;10.30;7.63;;;;;;;14.22;65.60;101356.97;7388050;19;20026;-46
2023/05/15 01:24:02;;;;;;;12.32;8.00;;;;;;;14.14;66.49;101352.25;7388923;19;20019;-46
2023/05/15 01:26:37;;;;;;;11.10;8.23;;;;;;;14.17;66.04;101361.81;7387331;19;20036;-48
2023/05/15 01:29:13;;;;;;;14.93;9.63;;;;;;;14.25;65.72;101362.06;7388596;19;20342;-46
2023/05/15 01:31:44;;;;;;;14.35;8.68;;;;;;;14.27;65.44;101359.25;7389204;19;20021;-46
2023/05/15 01:34:14;;;;;;;11.63;8.48;;;;;;;14.28;65.67;101361.81;7387542;19;20494;-48
2023/05/15 01:36:47;;;;;;;13.65;8.32;;;;;;;14.28;65.62;101353.81;7388733;19;20015;-46
2023/05/15 01:39:19;;;;;;;11.43;8.35;;;;;;;14.33;65.67;101356.13;7388708;19;20011;-47
2023/05/15 01:42:14;;;;;;;11.75;8.93;;;;;;;14.25;66.86;101351.41;7389271;19;20014;-47
2023/05/15 01:44:51;;;;;;;12.15;8.93;;;;;;;14.02;67.41;101349.72;7387086;19;20101;-48
2023/05/15 01:47:23;;;;;;;11.95;9.43;;;;;;;13.79;68.19;101354.16;7389260;19;20022;-48
2023/05/15 01:49:54;;;;;;;13.07;9.23;;;;;;;13.75;68.48;101347.38;7390881;19;20034;-47
2023/05/15 01:52:28;;;;;;;12.73;8.90;;;;;;;13.77;68.55;101351.59;7395577;19;20046;-47
2023/05/15 01:54:56;;;;;;;11.38;8.45;;;;;;;14.14;67.04;101354.06;7393510;19;20022;-46
2023/05/15 01:57:25;;;;;;;13.07;8.88;;;;;;;14.32;66.24;101351.75;7396460;19;20010;-48
2023/05/15 01:59:54;;;;;;;11.88;9.25;;;;;;;14.26;66.15;101352.25;7395304;19;20033;-47
2023/05/15 02:02:22;;;;;;;14.38;9.48;;;;;;;13.95;67.15;101348.50;7396344;19;20011;-49
2023/05/15 02:04:51;;;;;;;12.10;8.75;;;;;;;13.82;68.21;101348.63;7392456;19;20046;-47
2023/05/15 02:07:19;;;;;;;11.82;8.80;;;;;;;13.70;68.69;101345.09;7393062;19;20022;-47
2023/05/15 02:09:48;;;;;;;12.70;9.43;;;;;;;13.76;68.48;101347.25;7393074;19;20022;-45
2023/05/15 02:12:15;;;;;;;11.18;8.60;;;;;;;13.89;67.81;101348.00;7395389;19;20014;-46
2023/05/15 02:14:43;;;;;;;11.65;8.82;;;;;;;13.79;68.59;101339.03;7392819;19;20357;-45
2023/05/15 02:17:10;;;;;;;13.23;8.98;;;;;;;14.11;67.22;101341.81;7396101;19;20122;-46
2023/05/15 02:19:37;;;;;;;10.70;7.72;;;;;;;14.25;65.53;101343.41;7393841;19;20032;-45
2023/05/15 02:22:05;;;;;;;11.90;8.77;;;;;;;14.03;66.10;101335.41;7395755;19;20018;-45
2023/05/15 02:24:32;;;;;;;14.00;9.40;;;;;;;13.60;67.83;101333.44;7393142;19;20085;-46
2023/05/15 02:27:12;;;;;;;11.75;8.57;;;;;;;13.81;67.41;101339.78;7392592;19;20118;-46
2023/05/15 02:30:08;;;;;;;10.63;8.75;;;;;;;13.98;67.14;101332.28;7396497;19;20042;-47
2023/05/15 02:32:53;;;;;;;10.45;8.77;;;;;;;13.84;67.40;101338.66;7393749;19;20122;-48
2023/05/15 02:35:38;;;;;;;12.57;9.98;;;;;;;13.74;67.45;101335.06;7394012;19;20018;-46
2023/05/15 02:38:11;;;;;;;12.35;9.65;;;;;;;13.69;67.96;101332.72;7394747;19;20038;-49
2023/05/15 02:40:39;;;;;;;13.43;9.52;;;;;;;13.83;67.73;101324.53;7393993;19;20016;-48
2023/05/15 02:43:09;;;;;;;11.43;9.63;;;;;;;13.64;68.13;101326.91;7394153;19;20026;-48
2023/05/15 02:45:38;;;;;;;12.32;9.35;;;;;;;13.46;68.95;101329.19;7393284;19;20373;-47
2023/05/15 02:48:05;;;;;;;12.90;10.27;;;;;;;13.31;69.20;101325.03;7394842;19;20042;-47
2023/05/15 02:50:33;;;;;;;12.05;9.20;;;;;;;13.37;69.20;101328.06;7393335;19;20093;-47
2023/05/15 02:53:01;;;;;;;12.30;9.82;;;;;;;13.71;67.67;101306.00;7394601;19;20098;-47
2023/05/15 02:55:29;;;;;;;13.00;9.60;;;;;;;13.50;68.06;101308.50;7393173;19;20054;-50
2023/05/15 02:57:57;;;;;;;11.98;9.05;;;;;;;13.43;68.61;101312.59;7394339;19;20086;-47
2023/05/15 03:00:24;;;;;;;12.23;9.32;;;;;;;13.50;68.38;101303.19;7393190;19;20019;-46
2023/05/15 03:02:52;;;;;;;11.23;8.88;;;;;;;13.57;68.27;101307.91;7391818;19;20018;-47
2023/05/15 03:05:19;;;;;;;12.48;8.88;;;;;;;13.73;68.10;101304.91;7392865;19;20014;-45
2023/05/15 03:07:46;;;;;;;13.52;9.25;;;;;;;13.70;68.19;101304.28;7393631;19;20503;-46
2023/05/15 03:10:14;;;;;;;13.07;9.48;;;;;;;13.50;68.88;101311.16;7392635;19;20022;-46
2023/05/15 03:12:41;;;;;;;12.73;10.00;;;;;;;13.34;69.44;101301.69;7393282;19;20081;-46
2023/05/15 03:15:08;;;;;;;12.88;9.60;;;;;;;13.16;70.10;101297.75;7392573;19;20426;-47
2023/05/15 03:17:35;;;;;;;12.57;10.30;;;;;;;13.16;70.59;101301.28;7393108;19;20074;-44
2023/05/15 03:20:03;;;;;;;11.85;9.32;;;;;;;13.49;68.92;101298.84;7390086;19;20096;-45
2023/05/15 03:22:30;;;;;;;14.15;9.85;;;;;;;13.63;68.17;101296.81;7392715;19;20546;-45
2023/05/15 03:24:57;;;;;;;14.43;10.77;;;;;;;13.31;69.41;101299.28;7392971;19;20031;-48
2023/05/15 03:27:25;;;;;;;14.63;10.02;;;;;;;13.36;69.53;101297.13;7391347;19;20022;-46
2023/05/15 03:29:52;;;;;;;13.98;9.95;;;;;;;13.58;68.60;101295.44;7392503;19;20140;-47
2023/05/15 03:32:19;;;;;;;14.02;11.18;;;;;;;13.20;69.64;101293.03;7392678;19;20014;-48
2023/05/15 03:34:46;;;;;;;13.18;11.38;;;;;;;12.96;70.99;101296.59;7389976;19;20025;-49
2023/05/15 03:37:13;;;;;;;14.70;10.60;;;;;;;13.29;69.82;101295.06;7392589;19;20018;-47
2023/05/15 03:39:40;;;;;;;15.38;11.82;;;;;;;13.21;69.77;101290.28;7394442;19;20021;-47
2023/05/15 03:42:07;;;;;;;16.55;11.95;;;;;;;13.13;70.09;101292.69;7396631;19;20030;-47
2023/05/15 03:44:34;;;;;;;13.75;11.23;;;;;;;13.01;70.82;101291.81;7391014;19;20022;-47
2023/05/15 03:47:01;;;;;;;16.48;11.43;;;;;;;12.91;70.98;101283.66;7389659;19;20102;-48
2023/05/15 03:49:28;;;;;;;15.52;11.80;;;;;;;12.93;71.39;101286.19;7389677;19;20487;-48
2023/05/15 03:51:56;;;;;;;16.92;12.05;;;;;;;12.88;71.57;101286.53;7392085;19;20566;-49
2023/05/15 03:54:23;;;;;;;15.23;11.32;;;;;;;12.87;71.32;101287.50;7390273;19;20042;-49
2023/05/15 03:56:50;;;;;;;15.70;12.00;;;;;;;12.88;71.49;101288.34;7392046;19;20094;-46
2023/05/15 03:59:17;;;;;;;17.55;12.13;;;;;;;12.91;71.67;101291.63;7391527;19;20111;-48
2023/05/15 04:01:44;;;;;;;13.48;11.15;;;;;;;13.03;71.53;101297.00;7389509;19;20082;-48
2023/05/15 04:04:29;;;;;;;15.77;13.65;;;;;;;13.34;70.15;101309.69;7390309;19;20038;-45
2023/05/15 04:06:56;;;;;;;18.67;15.40;;;;;;;13.64;69.39;101301.16;7389186;19;20015;-48
2023/05/15 04:09:23;;;;;;;20.85;15.40;;;;;;;13.86;69.03;101300.31;7391227;19;20023;-47
2023/05/15 04:11:50;;;;;;;25.75;17.98;;;;;;;13.92;69.17;101306.13;7387596;19;20483;-45
2023/05/15 04:14:17;;;;;;;25.02;19.23;;;;;;;14.02;68.92;101296.44;7390463;19;20029;-46
2023/05/15 04:16:44;;;;;;;23.50;19.77;;;;;;;14.06;69.23;101306.72;7390764;19;20019;-47
2023/05/15 04:19:11;;;;;;;25.35;20.30;;;;;;;14.12;69.46;101313.41;7388082;19;20042;-46
2023/05/15 04:21:38;;;;;;;25.42;21.70;;;;;;;14.21;70.14;101309.16;7391023;19;20497;-46
2023/05/15 04:24:06;;;;;;;30.90;23.83;;;;;;;14.23;70.73;101302.75;7386086;19;20093;-46
2023/05/15 04:26:33;;;;;;;29.63;25.35;;;;;;;14.28;71.08;101313.84;7389440;19;20031;-47
2023/05/15 04:29:00;;;;;;;32.00;26.48;;;;;;;14.24;71.68;101311.56;7386183;19;20046;-48
2023/05/15 04:31:30;;;;;;;32.33;26.70;;;;;;;14.23;72.13;101302.75;7388776;19;20474;-48
2023/05/15 04:33:58;;;;;;;31.17;26.27;;;;;;;14.22;72.55;101305.50;7386076;19;20015;-45
2023/05/15 04:36:25;;;;;;;30.27;27.02;;;;;;;14.25;72.64;101300.78;7389834;19;20014;-47
2023/05/15 04:38:52;;;;;;;29.73;26.52;;;;;;;14.28;72.61;101311.19;7387627;19;20360;-46
2023/05/15 04:41:19;;;;;;;32.22;26.15;;;;;;;14.32;72.47;101306.47;7390696;19;20146;-46
2023/05/15 04:43:46;;;;;;;30.25;26.95;;;;;;;14.32;72.67;101307.31;7387770;19;20098;-46
2023/05/15 04:46:13;;;;;;;32.15;26.15;;;;;;;14.23;73.23;101313.38;7389768;19;20018;-46
2023/05/15 04:48:40;;;;;;;30.83;27.52;;;;;;;14.27;73.30;101301.50;7387305;19;20916;-47
2023/05/15 04:51:07;;;;;;;31.52;28.05;;;;;;;14.30;72.94;101305.72;7391065;19;20015;-45
2023/05/15 04:53:34;;;;;;;32.38;28.85;;;;;;;14.35;73.10;101301.75;7385611;19;20019;-47
2023/05/15 04:56:01;;;;;;;32.25;28.25;;;;;;;14.31;73.22;101302.13;7387686;19;20396;-45
2023/05/15 04:58:28;;;;;;;31.45;27.13;;;;;;;14.34;72.98;101299.19;7387161;19;20015;-46
2023/05/15 05:00:55;;;;;;;34.13;29.23;;;;;;;14.35;73.11;101303.56;7390510;19;20025;-50
2023/05/15 05:03:22;;;;;;;30.80;27.42;;;;;;;14.39;72.88;101307.66;7387358;19;20019;-47
2023/05/15 05:05:49;;;;;;;31.83;27.67;;;;;;;14.44;72.86;101304.63;7388492;19;20014;-47
2023/05/15 05:08:16;;;;;;;30.85;27.55;;;;;;;14.50;72.50;101301.47;7388546;19;20023;-47
2023/05/15 05:10:43;;;;;;;31.65;27.83;;;;;;;14.53;72.47;101303.91;7388871;19;20081;-46
2023/05/15 05:13:10;;;;;;;32.28;28.85;;;;;;;14.54;72.59;101303.78;7388152;19;20023;-47
2023/05/15 05:15:37;;;;;;;32.50;28.73;;;;;;;14.57;72.41;101302.66;7387201;19;20369;-47
2023/05/15 05:18:05;;;;;;;34.45;29.42;;;;;;;14.53;72.50;101301.22;7389821;19;20047;-47
2023/05/15 05:20:32;;;;;;;34.28;29.45;;;;;;;14.58;72.37;101296.38;7390081;19;20077;-47
2023/05/15 05:22:59;;;;;;;31.38;27.60;;;;;;;14.62;72.32;101300.50;7389247;19;20094;-47
2023/05/15 05:25:26;;;;;;;32.90;27.88;;;;;;;14.70;71.85;101295.38;7391645;19;20019;-48
2023/05/15 05:27:53;;;;;;;35.08;30.55;;;;;;;14.69;72.05;101300.81;7393258;19;20042;-47
2023/05/15 05:30:21;;;;;;;32.38;28.23;;;;;;;14.72;72.04;101306.75;7393335;19;20017;-47
2023/05/15 05:32:48;;;;;;;32.47;27.40;;;;;;;14.79;71.84;101307.94;7396897;19;20039;-47
2023/05/15 05:35:15;;;;;;;33.38;28.40;;;;;;;14.76;71.94;101304.69;7393628;19;20034;-47
2023/05/15 05:37:42;;;;;;;31.80;27.98;;;;;;;14.78;71.81;101308.91;7395306;19;20086;-48
2023/05/15 05:40:10;;;;;;;34.17;28.55;;;;;;;14.86;71.55;101313.63;7397678;19;20025;-46
2023/05/15 05:42:37;;;;;;;32.78;26.08;;;;;;;14.86;71.62;101310.94;7396332;19;20046;-46
2023/05/15 05:45:05;;;;;;;30.83;27.50;;;;;;;14.92;71.76;101307.78;7393444;19;20015;-49
2023/05/15 05:47:32;;;;;;;35.53;27.38;;;;;;;14.94;71.70;101311.16;7394487;19;20021;-47
2023/05/15 05:49:59;;;;;;;30.98;27.35;;;;;;;15.05;71.50;101304.94;7393012;19;20042;-48
2023/05/15 05:52:28;;;;;;;30.33;26.98;;;;;;;15.12;71.11;101300.78;7396076;19;20010;-47
2023/05/15 05:54:55;;;;;;;32.33;27.80;;;;;;;15.21;71.08;101308.00;7390475;19;20081;-46
2023/05/15 05:57:22;;;;;;;30.05;26.83;;;;;;;15.18;71.38;101308.25;7395773;19;20093;-47
2023/05/15 05:59:49;;;;;;;29.52;26.33;;;;;;;15.17;71.43;101311.91;7391533;19;20451;-52
2023/05/15 06:02:16;;;;;;;29.17;24.40;;;;;;;15.26;71.05;101308.47;7395942;19;20082;-49
2023/05/15 06:04:44;;;;;;;29.33;26.13;;;;;;;15.31;70.98;101308.06;7390591;19;20036;-46
2023/05/15 06:07:11;;;;;;;29.85;25.52;;;;;;;15.31;70.88;101303.56;7394102;19;20030;-48
2023/05/15 06:09:39;;;;;;;30.23;27.02;;;;;;;15.27;71.12;101312.81;7392938;19;20094;-46
2023/05/15 06:12:07;;;;;;;29.67;25.98;;;;;;;15.27;71.21;101309.31;7393468;19;20017;-45
2023/05/15 06:14:34;;;;;;;29.27;26.05;;;;;;;15.26;71.00;101302.25;7390816;19;20023;-46
2023/05/15 06:17:02;;;;;;;29.95;25.80;;;;;;;15.26;70.92;101305.81;7395320;19;20029;-49
2023/05/15 06:19:29;;;;;;;28.77;25.65;;;;;;;15.30;70.98;101301.03;7397137;19;20038;-49
2023/05/15 06:21:56;;;;;;;31.45;27.85;;;;;;;15.38;70.93;101308.38;7395574;19;20025;-48
2023/05/15 06:24:23;;;;;;;28.40;25.25;;;;;;;15.37;71.14;101304.88;7392595;19;20081;-48
2023/05/15 06:26:50;;;;;;;30.00;26.75;;;;;;;15.42;71.17;101312.50;7397739;19;20019;-48
2023/05/15 06:29:18;;;;;;;30.67;26.60;;;;;;;15.45;70.92;101307.72;7393926;19;20014;-47
2023/05/15 06:31:45;;;;;;;28.23;24.98;;;;;;;15.45;70.45;101309.56;7393398;19;20023;-48
2023/05/15 06:34:12;;;;;;;28.70;22.70;;;;;;;15.48;69.98;101315.47;7392829;19;20023;-46
2023/05/15 06:36:39;;;;;;;28.80;25.13;;;;;;;15.56;69.78;101310.31;7393273;19;20022;-46
2023/05/15 06:39:09;;;;;;;26.88;23.10;;;;;;;15.63;69.61;101315.16;7393343;19;20019;-50
2023/05/15 06:41:37;;;;;;;30.17;25.90;;;;;;;15.62;69.60;101322.31;7392898;19;20368;-51
2023/05/15 06:44:04;;;;;;;30.17;24.90;;;;;;;15.58;69.75;101321.72;7392774;19;20018;-50
2023/05/15 06:46:31;;;;;;;24.30;21.45;;;;;;;15.66;69.41;101309.59;7393643;19;20018;-50
2023/05/15 06:48:58;;;;;;;28.10;24.20;;;;;;;15.68;69.37;101316.50;7392806;19;20026;-50
2023/05/15 06:51:25;;;;;;;30.05;24.77;;;;;;;15.75;69.40;101316.78;7394968;19;20022;-46
2023/05/15 06:53:52;;;;;;;29.35;25.42;;;;;;;15.76;69.42;101313.16;7393206;19;20025;-46
2023/05/15 06:56:20;;;;;;;29.17;25.65;;;;;;;15.75;69.58;101311.44;7392923;19;20021;-47
2023/05/15 06:58:47;;;;;;;28.25;24.45;;;;;;;15.76;69.62;101303.31;7393615;19;20019;-46
2023/05/15 07:01:14;;;;;;;30.02;26.30;;;;;;;15.79;69.51;101304.84;7393897;19;20086;-46
2023/05/15 07:03:41;;;;;;;28.60;24.52;;;;;;;15.83;69.41;101303.59;7392919;19;20043;-49
2023/05/15 07:06:08;;;;;;;28.67;24.73;;;;;;;15.76;69.68;101299.81;7392909;19;20026;-49
2023/05/15 07:08:35;;;;;;;30.05;23.40;;;;;;;15.72;69.41;101307.22;7391523;19;20112;-48
2023/05/15 07:11:03;;;;;;;27.33;23.77;;;;;;;15.73;69.22;101302.75;7393292;19;20026;-50
2023/05/15 07:13:30;;;;;;;27.95;23.42;;;;;;;15.62;69.47;101308.97;7392338;19;20151;-46
2023/05/15 07:15:57;;;;;;;26.60;22.75;;;;;;;15.70;69.31;101311.84;7392286;19;20018;-49
2023/05/15 07:18:24;;;;;;;28.95;22.27;;;;;;;15.76;68.94;101300.66;7392345;19;20035;-49
2023/05/15 07:20:51;;;;;;;26.48;22.02;;;;;;;15.68;68.83;101304.94;7393498;19;20027;-47
2023/05/15 07:23:18;;;;;;;26.42;21.13;;;;;;;15.65;68.56;101306.06;7392594;19;20035;-48
2023/05/15 07:25:45;;;;;;;25.15;20.85;;;;;;;15.58;68.64;101303.03;7392066;19;20042;-49
2023/05/15 07:28:12;;;;;;;24.45;21.13;;;;;;;15.55;68.71;101297.13;7390880;19;20085;-45
2023/05/15 07:33:10;;;;;;;24.67;20.38;;;;;;;15.56;68.45;101298.81;7392030;19;20047;-49
2023/05/15 07:35:37;;;;;;;25.58;20.73;;;;;;;15.66;68.42;101297.06;7390572;19;20535;-46
2023/05/15 07:38:04;;;;;;;23.48;19.08;;;;;;;15.66;68.57;101298.91;7390023;19;20018;-49
2023/05/15 07:40:31;;;;;;;25.38;20.85;;;;;;;15.67;68.50;101304.09;7389965;19;20041;-46
2023/05/15 07:42:58;;;;;;;26.45;19.95;;;;;;;15.77;68.44;101297.00;7391051;19;20018;-50
2023/05/15 07:45:26;;;;;;;26.30;21.40;;;;;;;15.83;68.38;101296.47;7389926;19;20479;-46
2023/05/15 07:47:54;;;;;;;27.83;21.42;;;;;;;15.78;68.88;101304.00;7387238;19;20011;-45
2023/05/15 07:50:21;;;;;;;25.33;20.83;;;;;;;15.78;68.84;101298.66;7390128;19;20569;-46
2023/05/15 07:52:48;;;;;;;26.73;21.48;;;;;;;15.82;68.53;101294.75;7390392;19;20007;-47
2023/05/15 07:55:15;;;;;;;25.95;20.83;;;;;;;15.73;68.88;101294.72;7391677;19;20018;-46
2023/05/15 07:57:42;;;;;;;26.92;21.10;;;;;;;15.82;68.69;101292.09;7392328;19;20371;-47
2023/05/15 08:00:10;;;;;;;27.92;21.30;;;;;;;15.82;68.62;101293.91;7392947;19;20018;-45
2023/05/15 08:02:38;;;;;;;24.73;20.15;;;;;;;15.89;68.50;101303.09;7390255;19;20039;-46
2023/05/15 08:05:08;;;;;;;27.50;20.67;;;;;;;15.89;68.18;101299.56;7391720;19;20035;-46
2023/05/15 08:07:35;;;;;;;24.92;20.23;;;;;;;15.82;68.31;101293.91;7391208;19;20047;-46
2023/05/15 08:10:04;;;;;;;24.50;19.17;;;;;;;15.92;68.36;101301.97;7391269;19;20018;-46
2023/05/15 08:12:32;;;;;;;25.77;20.05;;;;;;;15.95;68.11;101296.34;7390248;19;20077;-45
2023/05/15 08:14:59;;;;;;;25.95;19.42;;;;;;;16.03;67.56;101291.19;7389754;19;20022;-47
2023/05/15 08:17:26;;;;;;;26.25;19.27;;;;;;;16.13;67.73;101285.88;7391199;19;20010;-45
2023/05/15 08:19:54;;;;;;;22.58;17.63;;;;;;;16.17;67.36;101285.44;7388788;19;20392;-45
2023/05/15 08:22:21;;;;;;;22.63;17.77;;;;;;;16.21;67.09;101281.53;7390044;19;20023;-46
2023/05/15 08:24:48;;;;;;;23.13;17.67;;;;;;;16.19;66.89;101282.66;7391502;19;20022;-45
2023/05/15 08:27:15;;;;;;;20.98;16.70;;;;;;;16.33;66.92;101274.25;7390998;19;20022;-47
2023/05/15 08:29:44;;;;;;;21.27;17.35;;;;;;;16.44;66.00;101281.28;7390340;19;20018;-45
2023/05/15 08:32:12;;;;;;;21.23;15.95;;;;;;;16.50;65.58;101280.75;7388108;19;20386;-45
2023/05/15 08:34:39;;;;;;;21.02;15.85;;;;;;;16.49;65.51;101271.91;7390082;19;20016;-49
2023/05/15 08:37:06;;;;;;;21.42;15.60;;;;;;;16.56;65.42;101266.84;7390713;19;20014;-46
2023/05/15 08:39:33;;;;;;;21.08;15.02;;;;;;;16.67;64.94;101264.00;7390361;19;20014;-45
2023/05/15 08:42:23;;;;;;;18.45;14.52;;;;;;;16.83;64.70;101259.97;7390169;19;20086;-46
2023/05/15 08:44:51;;;;;;;20.63;15.30;;;;;;;16.83;63.71;101249.25;7388806;19;20018;-47
2023/05/15 08:47:19;;;;;;;18.83;14.88;;;;;;;16.89;63.16;101259.41;7389755;19;20039;-47
2023/05/15 08:50:05;;;;;;;20.98;14.27;;;;;;;17.05;62.41;101257.81;7388104;19;20019;-49
2023/05/15 08:52:33;;;;;;;19.73;14.80;;;;;;;17.06;62.84;101253.34;7389317;19;20026;-46
2023/05/15 08:55:02;;;;;;;19.38;13.93;;;;;;;17.12;62.86;101254.59;7389682;19;20082;-48
2023/05/15 08:57:30;;;;;;;18.98;13.77;;;;;;;17.21;62.47;101253.75;7390789;19;20039;-46
2023/05/15 08:59:58;;;;;;;17.10;14.02;;;;;;;17.29;61.69;101252.03;7396509;19;20490;-46
2023/05/15 09:02:26;;;;;;;19.00;13.93;;;;;;;17.35;61.49;101245.25;7394591;19;20074;-47
2023/05/15 09:04:53;;;;;;;17.90;13.85;;;;;;;17.38;61.47;101250.31;7395586;19;20093;-48
2023/05/15 09:07:20;;;;;;;17.63;13.00;;;;;;;17.41;61.34;101244.66;7392944;19;20015;-48
2023/05/15 09:09:48;;;;;;;17.90;13.18;;;;;;;17.44;61.05;101244.38;7396485;19;20018;-48
2023/05/15 09:12:17;;;;;;;19.25;14.15;;;;;;;17.48;61.08;101251.13;7393811;19;20185;-48
2023/05/15 09:14:45;;;;;;;18.73;13.05;;;;;;;17.57;61.11;101238.69;7396586;19;20010;-48
2023/05/15 09:17:12;;;;;;;16.90;13.05;;;;;;;17.59;61.46;101247.44;7397300;19;20495;-46
2023/05/15 09:19:42;;;;;;;19.35;13.75;;;;;;;17.66;61.19;101239.63;7394496;19;20508;-45
2023/05/15 09:22:16;;;;;;;19.67;14.57;;;;;;;17.68;61.00;101238.50;7395510;19;20021;-49
2023/05/15 09:24:46;;;;;;;18.65;14.80;;;;;;;17.69;60.80;101250.06;7396394;19;20031;-46
2023/05/15 09:27:14;;;;;;;19.85;14.45;;;;;;;17.67;61.37;101247.56;7395622;19;20353;-45
2023/05/15 09:29:42;;;;;;;19.27;14.32;;;;;;;17.63;61.38;101242.59;7395595;19;20019;-49
2023/05/15 09:32:12;;;;;;;20.83;14.52;;;;;;;17.60;61.44;101237.56;7392956;19;20014;-49
2023/05/15 09:34:42;;;;;;;16.02;13.50;;;;;;;17.63;61.89;101245.28;7396101;19;20035;-47
2023/05/15 09:37:12;;;;;;;20.52;14.57;;;;;;;17.71;61.67;101240.91;7396996;19;20032;-46
2023/05/15 09:39:41;;;;;;;20.63;14.77;;;;;;;17.81;61.89;101243.56;7395824;19;20549;-46
2023/05/15 09:42:10;;;;;;;18.10;14.07;;;;;;;17.92;62.38;101242.53;7394835;19;20018;-46
2023/05/15 09:44:47;;;;;;;21.77;16.27;;;;;;;17.92;62.08;101238.00;7395548;19;20014;-45
2023/05/15 09:47:15;;;;;;;19.58;15.70;;;;;;;17.86;62.17;101237.75;7396790;19;20098;-48
2023/05/15 09:49:44;;;;;;;20.10;16.30;;;;;;;17.81;62.64;101237.34;7395658;19;20018;-47
2023/05/15 09:52:14;;;;;;;21.70;17.20;;;;;;;17.85;62.45;101236.06;7394350;19;20022;-49
2023/05/15 09:54:45;;;;;;;20.98;17.15;;;;;;;17.90;62.63;101239.16;7396097;19;20043;-47
2023/05/15 09:57:20;;;;;;;24.13;17.10;;;;;;;17.94;62.62;101237.88;7394369;19;20086;-48
2023/05/15 09:59:48;;;;;;;21.30;17.50;;;;;;;17.90;62.51;101237.31;7395633;19;20052;-47
2023/05/15 10:02:23;;;;;;;24.02;19.98;;;;;;;17.92;62.73;101243.34;7392207;19;20031;-49
2023/05/15 10:04:55;;;;;;;22.65;18.05;;;;;;;17.90;62.66;101231.97;7393582;19;20022;-45
2023/05/15 10:07:33;;;;;;;24.08;18.48;;;;;;;17.99;62.42;101235.56;7395337;19;20093;-45
2023/05/15 10:10:03;;;;;;;23.63;17.05;;;;;;;17.98;62.26;101229.38;7393721;19;20019;-47
2023/05/15 10:12:31;;;;;;;22.45;17.20;;;;;;;17.97;62.07;101238.41;7391458;19;20028;-46
2023/05/15 10:14:59;;;;;;;24.90;19.85;;;;;;;18.00;62.11;101237.25;7395043;19;20019;-45
2023/05/15 10:17:28;;;;;;;21.20;18.45;;;;;;;17.98;61.88;101237.41;7393136;19;20043;-45
2023/05/15 10:19:59;;;;;;;23.27;18.75;;;;;;;18.03;61.78;101239.66;7392812;19;20022;-46
2023/05/15 10:22:31;;;;;;;21.60;17.70;;;;;;;18.06;61.72;101231.31;7391614;19;20025;-45
2023/05/15 10:25:03;;;;;;;26.42;19.05;;;;;;;18.18;61.61;101240.81;7393113;19;20078;-47
2023/05/15 10:27:31;;;;;;;24.67;18.92;;;;;;;18.27;61.59;101239.91;7394787;19;20014;-50
2023/05/15 10:29:59;;;;;;;20.88;16.58;;;;;;;18.26;60.67;101235.53;7393814;19;20134;-50
2023/05/15 10:32:27;;;;;;;24.67;16.40;;;;;;;18.30;60.55;101243.28;7392435;19;20019;-46
2023/05/15 10:34:56;;;;;;;21.90;16.58;;;;;;;18.35;60.57;101239.16;7392774;19;20459;-46
2023/05/15 10:37:24;;;;;;;23.20;18.42;;;;;;;18.39;59.86;101239.69;7394474;19;20090;-46
2023/05/15 10:39:52;;;;;;;20.90;16.65;;;;;;;18.36;60.32;101235.50;7393359;19;20130;-47
2023/05/15 10:42:19;;;;;;;20.55;16.65;;;;;;;18.39;59.85;101234.31;7391516;19;20506;-45
2023/05/15 10:44:47;;;;;;;22.77;15.75;;;;;;;18.43;59.01;101233.03;7391943;19;20472;-47
2023/05/15 10:47:14;;;;;;;18.23;14.20;;;;;;;18.46;58.50;101230.03;7392803;19;20021;-47
2023/05/15 10:49:42;;;;;;;18.75;13.68;;;;;;;18.55;57.53;101236.34;7390918;19;20014;-46
2023/05/15 10:52:09;;;;;;;20.27;14.15;;;;;;;18.57;57.07;101228.97;7390999;19;20018;-45
2023/05/15 10:54:37;;;;;;;18.58;12.82;;;;;;;18.59;56.89;101227.84;7391991;19;20040;-46
2023/05/15 10:57:05;;;;;;;15.80;12.35;;;;;;;18.52;56.45;101226.75;7393632;19;20018;-47
2023/05/15 10:59:33;;;;;;;17.38;11.10;;;;;;;18.56;56.48;101225.44;7391740;19;20044;-46
2023/05/15 11:02:23;;;;;;;16.48;12.25;;;;;;;18.61;55.00;101225.00;7392340;19;20022;-45
2023/05/15 11:04:59;;;;;;;15.13;10.85;;;;;;;18.60;55.92;101226.00;7391415;19;20077;-45
2023/05/15 11:07:27;;;;;;;19.05;11.18;;;;;;;18.67;55.82;101222.53;7391610;19;20378;-46
2023/05/15 11:09:55;;;;;;;17.30;12.00;;;;;;;18.70;55.62;101213.34;7390638;19;20014;-47
2023/05/15 11:12:23;;;;;;;18.45;11.70;;;;;;;18.75;55.40;101211.91;7392214;19;20554;-46
2023/05/15 11:14:51;;;;;;;15.23;11.52;;;;;;;18.83;54.80;101207.59;7390997;19;20026;-46
2023/05/15 11:17:18;;;;;;;17.80;12.30;;;;;;;18.83;54.49;101211.13;7393320;19;20031;-45
2023/05/15 11:19:47;;;;;;;17.08;11.00;;;;;;;18.89;54.75;101220.41;7392424;19;20035;-48
2023/05/15 11:22:27;;;;;;;12.85;9.10;;;;;;;18.93;52.77;101216.41;7387497;19;20040;-47